Terminal Aerodrome Forecast
Issued by NWS

Current Version | Previous Version | Text Only | Print | Product List | Glossary On
Versions: 1 2 3 4 5 6 7 8 9 10 11 12 13 14 15 16 17 18 19 20 21 22 23 24 25 26 27 28 29 30
000
FTUS44 KLIX 291131
TAFHUM
TAF
KHUM 291131Z 2912/3012 00000KT P6SM SCT035 SCT045
     FM291700 15005KT P6SM VCTS SCT030CB BKN060
     FM292300 15003KT P6SM SCT060
     FM300800 VRB03KT P6SM SCT020 BKN060=

USA.gov is the U.S. government's official web portal to all federal, state and local government web resources and services.